KMNE

Minden Airport

Minden, Louisiana, USA
METAR KMNE 191935Z AUTO 00000KT 10SM OVC055 23/16 A3015 RMK AO2 T02340156
Observed Flight Rules
Oct-19 @ 19:35 UTC (17 minutes ago) Visual Flight Rules
Visibility Clouds
10 miles
  • Overcast at 5,500' AGL
Temperatures Readings
Current 23°C / 73°F
Dewpoint 16°C / 61°F
Humidity 65%
Altimeter 30.15" Hg
Pressure 1021 hPa
Elevation 85
METAR KMNE 191935Z AUTO 00000KT 10SM OVC055 23/16 A3015 RMK AO2 T02340156
Observed Flight Rules
Oct-19 @ 19:35 UTC
(17 minutes ago)
VFR
Clouds
  • Overcast at 5,500' AGL
Temperature Dewpoint
23°C / 73°F 16°C / 61°F
Humidity Altimeter Pressure
65% 30.15" Hg 1021 hPa